Terminal Aerodrome Forecast
Issued by NWS

Home | Current Version | Previous Version | Text Only | Print | Product List | Glossary On
Versions: 1 2 3 4 5 6 7 8 9 10 11 12 13 14 15 16 17 18 19 20 21
000
FTUS46 KMTR 230500
TAFSTS
TAF
KSTS 230538Z 2306/2406 15005KT P6SM OVC008
     FM230700 VRB03KT P6SM OVC005
      TEMPO 2314/2318 00000KT 1/2SM FG OVC004
     FM231900 VRB05KT P6SM SKC
     FM232100 18010KT P6SM SKC
     FM240300 16005KT P6SM SKC
     FM240500 15003KT P6SM OVC008=

USA.gov is the U.S. government's official web portal to all federal, state and local government web resources and services.